LFRC/CER METAR and TAF weather

Enter ICAO airport designator
Station Type Date Time Source
LFRC METAR 2018/12/15 02:00 UTC NOAA

LFRC 150200Z AUTO 16015KT 8000 SCT042 OVC052 00/M04 Q1018


Station Type Date Time Source
LFRC Decoded METAR 2018/12/15 02:00 UTC NOAA

Cherbourg / Maupertus, France (LFRC) 49-39N 001-28W 139M
Dec 14, 2018 - 09:00 PM EST / 2018.12.15 0200 UTC
Wind: from the SSE (160 degrees) at 17 MPH (15 KT):0
Visibility: 4 mile(s):0
Sky conditions: overcast
Temperature: 32 F (0 C)
Windchill: 21 F (-6 C):1
Dew Point: 24 F (-4 C)
Relative Humidity: 74%
Pressure (altimeter): 30.06 in. Hg (1018 hPa)
ob: LFRC 150200Z AUTO 16015KT 8000 SCT042 OVC052 00/M04 Q1018
cycle: 2

Station Type Date Time Source
LFRC TAF 2008/10/12 17:07 UTC NOAA

TAF
AMD LFRC 121707Z 121721 CNL


Example: see airport list